sensor_id;sensor_type;location;lat;lon;timestamp;P1;durP1;ratioP1;P2;durP2;ratioP2
23702;SDS011;12030;50.376;8.762;2024-03-22T00:01:44;13.80;;;11.20;;
23702;SDS011;12030;50.376;8.762;2024-03-22T00:04:10;14.97;;;11.63;;
23702;SDS011;12030;50.376;8.762;2024-03-22T00:06:36;13.87;;;11.13;;
23702;SDS011;12030;50.376;8.762;2024-03-22T00:09:02;11.23;;;9.93;;
23702;SDS011;12030;50.376;8.762;2024-03-22T00:11:28;12.03;;;9.80;;
23702;SDS011;12030;50.376;8.762;2024-03-22T00:13:53;13.03;;;11.00;;
23702;SDS011;12030;50.376;8.762;2024-03-22T00:16:19;11.50;;;9.40;;
23702;SDS011;12030;50.376;8.762;2024-03-22T00:18:44;9.97;;;8.97;;
23702;SDS011;12030;50.376;8.762;2024-03-22T00:21:10;10.83;;;9.27;;
23702;SDS011;12030;50.376;8.762;2024-03-22T00:23:35;13.20;;;10.90;;
23702;SDS011;12030;50.376;8.762;2024-03-22T00:26:01;13.23;;;11.23;;
23702;SDS011;12030;50.376;8.762;2024-03-22T00:28:26;14.93;;;12.13;;
23702;SDS011;12030;50.376;8.762;2024-03-22T00:30:52;16.87;;;13.37;;
23702;SDS011;12030;50.376;8.762;2024-03-22T00:33:17;16.73;;;13.00;;
23702;SDS011;12030;50.376;8.762;2024-03-22T00:35:43;17.57;;;13.30;;
23702;SDS011;12030;50.376;8.762;2024-03-22T00:38:08;14.53;;;12.13;;
23702;SDS011;12030;50.376;8.762;2024-03-22T00:40:34;15.13;;;12.40;;
23702;SDS011;12030;50.376;8.762;2024-03-22T00:42:59;16.07;;;12.43;;
23702;SDS011;12030;50.376;8.762;2024-03-22T00:45:25;15.73;;;12.10;;
23702;SDS011;12030;50.376;8.762;2024-03-22T00:47:51;16.30;;;12.57;;
23702;SDS011;12030;50.376;8.762;2024-03-22T00:50:16;16.53;;;12.67;;
23702;SDS011;12030;50.376;8.762;2024-03-22T00:52:42;17.63;;;13.87;;
23702;SDS011;12030;50.376;8.762;2024-03-22T00:55:07;19.50;;;14.53;;
23702;SDS011;12030;50.376;8.762;2024-03-22T00:57:33;18.37;;;14.90;;
23702;SDS011;12030;50.376;8.762;2024-03-22T00:59:58;17.93;;;14.57;;
23702;SDS011;12030;50.376;8.762;2024-03-22T01:02:24;16.13;;;11.57;;
23702;SDS011;12030;50.376;8.762;2024-03-22T01:04:49;16.90;;;11.90;;
23702;SDS011;12030;50.376;8.762;2024-03-22T01:07:15;15.23;;;12.37;;
23702;SDS011;12030;50.376;8.762;2024-03-22T01:09:41;12.90;;;10.83;;
23702;SDS011;12030;50.376;8.762;2024-03-22T01:12:09;14.90;;;11.70;;
23702;SDS011;12030;50.376;8.762;2024-03-22T01:14:34;13.53;;;11.33;;
23702;SDS011;12030;50.376;8.762;2024-03-22T01:17:00;14.47;;;10.90;;
23702;SDS011;12030;50.376;8.762;2024-03-22T01:19:26;16.07;;;11.50;;
23702;SDS011;12030;50.376;8.762;2024-03-22T01:21:51;15.20;;;11.70;;
23702;SDS011;12030;50.376;8.762;2024-03-22T01:24:17;16.87;;;11.77;;
23702;SDS011;12030;50.376;8.762;2024-03-22T01:26:42;14.33;;;10.73;;
23702;SDS011;12030;50.376;8.762;2024-03-22T01:29:08;12.40;;;9.27;;
23702;SDS011;12030;50.376;8.762;2024-03-22T01:31:33;14.07;;;9.27;;
23702;SDS011;12030;50.376;8.762;2024-03-22T01:33:59;13.33;;;10.27;;
23702;SDS011;12030;50.376;8.762;2024-03-22T01:36:24;10.60;;;8.53;;
23702;SDS011;12030;50.376;8.762;2024-03-22T01:38:50;14.97;;;10.37;;
23702;SDS011;12030;50.376;8.762;2024-03-22T01:41:15;15.20;;;10.53;;
23702;SDS011;12030;50.376;8.762;2024-03-22T01:43:41;13.27;;;10.20;;
23702;SDS011;12030;50.376;8.762;2024-03-22T01:46:06;16.50;;;11.60;;
23702;SDS011;12030;50.376;8.762;2024-03-22T01:48:33;15.53;;;10.63;;
23702;SDS011;12030;50.376;8.762;2024-03-22T01:50:59;13.80;;;10.27;;
23702;SDS011;12030;50.376;8.762;2024-03-22T01:53:25;15.23;;;10.63;;
23702;SDS011;12030;50.376;8.762;2024-03-22T01:55:51;14.27;;;10.40;;
23702;SDS011;12030;50.376;8.762;2024-03-22T01:58:17;13.97;;;10.73;;
23702;SDS011;12030;50.376;8.762;2024-03-22T02:00:43;14.93;;;11.50;;
23702;SDS011;12030;50.376;8.762;2024-03-22T02:03:09;15.43;;;10.73;;
23702;SDS011;12030;50.376;8.762;2024-03-22T02:05:34;16.27;;;11.27;;
23702;SDS011;12030;50.376;8.762;2024-03-22T02:08:00;14.10;;;11.27;;
23702;SDS011;12030;50.376;8.762;2024-03-22T02:10:26;16.50;;;10.70;;
23702;SDS011;12030;50.376;8.762;2024-03-22T02:12:52;15.03;;;11.20;;
23702;SDS011;12030;50.376;8.762;2024-03-22T02:15:17;17.27;;;11.70;;
23702;SDS011;12030;50.376;8.762;2024-03-22T02:17:43;18.37;;;12.63;;
23702;SDS011;12030;50.376;8.762;2024-03-22T02:20:09;16.40;;;12.40;;
23702;SDS011;12030;50.376;8.762;2024-03-22T02:22:36;18.00;;;12.87;;
23702;SDS011;12030;50.376;8.762;2024-03-22T02:25:02;16.37;;;10.40;;
23702;SDS011;12030;50.376;8.762;2024-03-22T02:27:28;16.60;;;11.17;;
23702;SDS011;12030;50.376;8.762;2024-03-22T02:29:54;14.70;;;11.03;;
23702;SDS011;12030;50.376;8.762;2024-03-22T02:32:19;12.40;;;8.40;;
23702;SDS011;12030;50.376;8.762;2024-03-22T02:34:45;13.27;;;9.77;;
23702;SDS011;12030;50.376;8.762;2024-03-22T02:37:10;14.07;;;9.57;;
23702;SDS011;12030;50.376;8.762;2024-03-22T02:39:36;12.20;;;9.10;;
23702;SDS011;12030;50.376;8.762;2024-03-22T02:42:01;11.03;;;8.33;;
23702;SDS011;12030;50.376;8.762;2024-03-22T02:44:27;12.57;;;9.23;;
23702;SDS011;12030;50.376;8.762;2024-03-22T02:46:52;12.70;;;9.17;;
23702;SDS011;12030;50.376;8.762;2024-03-22T02:49:18;13.53;;;10.10;;
23702;SDS011;12030;50.376;8.762;2024-03-22T02:51:43;15.20;;;10.47;;
23702;SDS011;12030;50.376;8.762;2024-03-22T02:54:09;12.97;;;8.67;;
23702;SDS011;12030;50.376;8.762;2024-03-22T02:56:34;11.93;;;9.47;;
23702;SDS011;12030;50.376;8.762;2024-03-22T02:59:00;13.80;;;8.60;;
23702;SDS011;12030;50.376;8.762;2024-03-22T03:01:25;11.03;;;8.07;;
23702;SDS011;12030;50.376;8.762;2024-03-22T03:03:51;10.47;;;7.40;;
23702;SDS011;12030;50.376;8.762;2024-03-22T03:06:16;10.03;;;7.73;;
23702;SDS011;12030;50.376;8.762;2024-03-22T03:08:44;12.67;;;8.63;;
23702;SDS011;12030;50.376;8.762;2024-03-22T03:11:10;13.97;;;9.57;;
23702;SDS011;12030;50.376;8.762;2024-03-22T03:13:36;15.47;;;10.53;;
23702;SDS011;12030;50.376;8.762;2024-03-22T03:16:02;15.00;;;9.93;;
23702;SDS011;12030;50.376;8.762;2024-03-22T03:18:28;14.53;;;10.53;;
23702;SDS011;12030;50.376;8.762;2024-03-22T03:20:53;12.60;;;8.50;;
23702;SDS011;12030;50.376;8.762;2024-03-22T03:23:19;15.07;;;10.10;;
23702;SDS011;12030;50.376;8.762;2024-03-22T03:25:45;14.03;;;10.50;;
23702;SDS011;12030;50.376;8.762;2024-03-22T03:28:11;16.43;;;11.00;;
23702;SDS011;12030;50.376;8.762;2024-03-22T03:30:38;16.30;;;12.07;;
23702;SDS011;12030;50.376;8.762;2024-03-22T03:33:03;16.03;;;10.77;;
23702;SDS011;12030;50.376;8.762;2024-03-22T03:35:29;14.37;;;10.03;;
23702;SDS011;12030;50.376;8.762;2024-03-22T03:37:55;18.20;;;11.23;;
23702;SDS011;12030;50.376;8.762;2024-03-22T03:40:20;16.27;;;10.63;;
23702;SDS011;12030;50.376;8.762;2024-03-22T03:42:49;16.57;;;11.00;;
23702;SDS011;12030;50.376;8.762;2024-03-22T03:45:18;19.63;;;13.50;;
23702;SDS011;12030;50.376;8.762;2024-03-22T03:47:43;20.63;;;13.00;;
23702;SDS011;12030;50.376;8.762;2024-03-22T03:50:09;21.50;;;14.03;;
23702;SDS011;12030;50.376;8.762;2024-03-22T03:52:34;23.70;;;15.13;;
23702;SDS011;12030;50.376;8.762;2024-03-22T03:55:00;20.37;;;14.40;;
23702;SDS011;12030;50.376;8.762;2024-03-22T03:57:26;23.47;;;14.83;;
23702;SDS011;12030;50.376;8.762;2024-03-22T03:59:51;22.67;;;15.07;;
23702;SDS011;12030;50.376;8.762;2024-03-22T04:02:17;25.23;;;15.70;;
23702;SDS011;12030;50.376;8.762;2024-03-22T04:04:42;21.73;;;14.73;;
23702;SDS011;12030;50.376;8.762;2024-03-22T04:07:08;21.80;;;14.70;;
23702;SDS011;12030;50.376;8.762;2024-03-22T04:09:33;21.40;;;15.50;;
23702;SDS011;12030;50.376;8.762;2024-03-22T04:11:59;24.63;;;16.67;;
23702;SDS011;12030;50.376;8.762;2024-03-22T04:14:25;21.20;;;14.67;;
23702;SDS011;12030;50.376;8.762;2024-03-22T04:16:51;23.23;;;16.03;;
23702;SDS011;12030;50.376;8.762;2024-03-22T04:19:19;22.80;;;16.67;;
23702;SDS011;12030;50.376;8.762;2024-03-22T04:21:45;22.43;;;16.20;;
23702;SDS011;12030;50.376;8.762;2024-03-22T04:24:10;23.57;;;17.07;;
23702;SDS011;12030;50.376;8.762;2024-03-22T04:26:36;22.90;;;16.47;;
23702;SDS011;12030;50.376;8.762;2024-03-22T04:29:01;24.90;;;16.03;;
23702;SDS011;12030;50.376;8.762;2024-03-22T04:31:27;20.57;;;15.57;;
23702;SDS011;12030;50.376;8.762;2024-03-22T04:33:52;21.10;;;15.73;;
23702;SDS011;12030;50.376;8.762;2024-03-22T04:36:18;23.03;;;16.37;;
23702;SDS011;12030;50.376;8.762;2024-03-22T04:38:43;23.47;;;16.93;;
23702;SDS011;12030;50.376;8.762;2024-03-22T04:41:09;22.63;;;16.33;;
23702;SDS011;12030;50.376;8.762;2024-03-22T04:43:34;22.03;;;16.00;;
23702;SDS011;12030;50.376;8.762;2024-03-22T04:46:00;20.73;;;15.27;;
23702;SDS011;12030;50.376;8.762;2024-03-22T04:48:25;22.93;;;17.37;;
23702;SDS011;12030;50.376;8.762;2024-03-22T04:50:51;23.67;;;16.60;;
23702;SDS011;12030;50.376;8.762;2024-03-22T04:53:17;22.97;;;16.97;;
23702;SDS011;12030;50.376;8.762;2024-03-22T04:55:44;22.10;;;16.33;;
23702;SDS011;12030;50.376;8.762;2024-03-22T04:58:28;22.53;;;17.30;;
23702;SDS011;12030;50.376;8.762;2024-03-22T05:00:56;23.97;;;17.23;;
23702;SDS011;12030;50.376;8.762;2024-03-22T05:03:22;23.07;;;17.47;;
23702;SDS011;12030;50.376;8.762;2024-03-22T05:05:49;24.47;;;17.70;;
23702;SDS011;12030;50.376;8.762;2024-03-22T05:08:15;21.93;;;17.17;;
23702;SDS011;12030;50.376;8.762;2024-03-22T05:10:40;23.87;;;18.27;;
23702;SDS011;12030;50.376;8.762;2024-03-22T05:13:07;23.27;;;17.63;;
23702;SDS011;12030;50.376;8.762;2024-03-22T05:15:32;23.73;;;17.17;;
23702;SDS011;12030;50.376;8.762;2024-03-22T05:17:58;23.23;;;17.10;;
23702;SDS011;12030;50.376;8.762;2024-03-22T05:20:24;21.37;;;17.47;;
23702;SDS011;12030;50.376;8.762;2024-03-22T05:22:50;24.33;;;17.30;;
23702;SDS011;12030;50.376;8.762;2024-03-22T05:25:16;22.27;;;17.43;;
23702;SDS011;12030;50.376;8.762;2024-03-22T05:27:41;24.83;;;17.80;;
23702;SDS011;12030;50.376;8.762;2024-03-22T05:30:08;22.40;;;17.30;;
23702;SDS011;12030;50.376;8.762;2024-03-22T05:32:34;22.47;;;16.83;;
23702;SDS011;12030;50.376;8.762;2024-03-22T05:35:00;23.63;;;17.23;;
23702;SDS011;12030;50.376;8.762;2024-03-22T05:37:25;26.63;;;18.13;;
23702;SDS011;12030;50.376;8.762;2024-03-22T05:39:51;24.87;;;17.93;;
23702;SDS011;12030;50.376;8.762;2024-03-22T05:42:17;24.63;;;17.27;;
23702;SDS011;12030;50.376;8.762;2024-03-22T05:44:43;22.87;;;17.73;;
23702;SDS011;12030;50.376;8.762;2024-03-22T05:47:09;23.23;;;16.70;;
23702;SDS011;12030;50.376;8.762;2024-03-22T05:49:35;23.77;;;17.33;;
23702;SDS011;12030;50.376;8.762;2024-03-22T05:52:00;23.27;;;17.10;;
23702;SDS011;12030;50.376;8.762;2024-03-22T05:54:26;23.90;;;16.80;;
23702;SDS011;12030;50.376;8.762;2024-03-22T05:56:51;22.37;;;17.00;;
23702;SDS011;12030;50.376;8.762;2024-03-22T05:59:17;25.13;;;18.43;;
23702;SDS011;12030;50.376;8.762;2024-03-22T06:01:42;24.77;;;18.80;;
23702;SDS011;12030;50.376;8.762;2024-03-22T06:04:08;22.87;;;18.03;;
23702;SDS011;12030;50.376;8.762;2024-03-22T06:06:34;24.53;;;17.70;;
23702;SDS011;12030;50.376;8.762;2024-03-22T06:09:00;22.37;;;17.27;;
23702;SDS011;12030;50.376;8.762;2024-03-22T06:11:28;23.03;;;18.00;;
23702;SDS011;12030;50.376;8.762;2024-03-22T06:13:54;22.80;;;17.57;;
23702;SDS011;12030;50.376;8.762;2024-03-22T06:16:20;22.03;;;17.20;;
23702;SDS011;12030;50.376;8.762;2024-03-22T06:18:46;22.87;;;18.50;;
23702;SDS011;12030;50.376;8.762;2024-03-22T06:21:12;21.50;;;17.00;;
23702;SDS011;12030;50.376;8.762;2024-03-22T06:23:39;21.10;;;17.10;;
23702;SDS011;12030;50.376;8.762;2024-03-22T06:26:05;19.43;;;16.73;;
23702;SDS011;12030;50.376;8.762;2024-03-22T06:28:30;19.73;;;16.93;;
23702;SDS011;12030;50.376;8.762;2024-03-22T06:30:56;22.20;;;17.83;;
23702;SDS011;12030;50.376;8.762;2024-03-22T06:33:21;22.37;;;18.00;;
23702;SDS011;12030;50.376;8.762;2024-03-22T06:35:47;24.03;;;18.23;;
23702;SDS011;12030;50.376;8.762;2024-03-22T06:38:13;21.67;;;18.37;;
23702;SDS011;12030;50.376;8.762;2024-03-22T06:40:38;20.93;;;17.30;;
23702;SDS011;12030;50.376;8.762;2024-03-22T06:43:04;21.83;;;17.53;;
23702;SDS011;12030;50.376;8.762;2024-03-22T06:45:29;20.17;;;16.67;;
23702;SDS011;12030;50.376;8.762;2024-03-22T06:47:55;22.80;;;16.90;;
23702;SDS011;12030;50.376;8.762;2024-03-22T06:50:21;19.00;;;16.33;;
23702;SDS011;12030;50.376;8.762;2024-03-22T06:52:52;19.43;;;16.13;;
23702;SDS011;12030;50.376;8.762;2024-03-22T06:55:18;21.67;;;17.43;;
23702;SDS011;12030;50.376;8.762;2024-03-22T06:57:45;19.60;;;16.40;;
23702;SDS011;12030;50.376;8.762;2024-03-22T07:00:12;19.37;;;16.87;;
23702;SDS011;12030;50.376;8.762;2024-03-22T07:02:38;21.00;;;16.63;;
23702;SDS011;12030;50.376;8.762;2024-03-22T07:05:05;21.53;;;16.00;;
23702;SDS011;12030;50.376;8.762;2024-03-22T07:07:33;19.60;;;16.17;;
23702;SDS011;12030;50.376;8.762;2024-03-22T07:09:59;18.67;;;16.00;;
23702;SDS011;12030;50.376;8.762;2024-03-22T07:12:25;20.33;;;16.97;;
23702;SDS011;12030;50.376;8.762;2024-03-22T07:14:51;20.20;;;17.17;;
23702;SDS011;12030;50.376;8.762;2024-03-22T07:17:16;22.50;;;17.57;;
23702;SDS011;12030;50.376;8.762;2024-03-22T07:19:42;22.40;;;17.77;;
23702;SDS011;12030;50.376;8.762;2024-03-22T07:22:07;20.23;;;16.83;;
23702;SDS011;12030;50.376;8.762;2024-03-22T07:24:33;19.37;;;16.57;;
23702;SDS011;12030;50.376;8.762;2024-03-22T07:26:59;22.20;;;17.20;;
23702;SDS011;12030;50.376;8.762;2024-03-22T07:29:24;17.90;;;15.47;;
23702;SDS011;12030;50.376;8.762;2024-03-22T07:31:50;24.23;;;17.07;;
23702;SDS011;12030;50.376;8.762;2024-03-22T07:34:15;19.97;;;16.53;;
23702;SDS011;12030;50.376;8.762;2024-03-22T07:36:41;20.13;;;16.20;;
23702;SDS011;12030;50.376;8.762;2024-03-22T07:39:06;20.53;;;16.83;;
23702;SDS011;12030;50.376;8.762;2024-03-22T07:41:32;19.63;;;16.43;;
23702;SDS011;12030;50.376;8.762;2024-03-22T07:43:59;20.90;;;16.80;;
23702;SDS011;12030;50.376;8.762;2024-03-22T07:46:25;22.13;;;17.07;;
23702;SDS011;12030;50.376;8.762;2024-03-22T07:48:51;19.97;;;16.33;;
23702;SDS011;12030;50.376;8.762;2024-03-22T07:51:17;20.60;;;16.87;;
23702;SDS011;12030;50.376;8.762;2024-03-22T07:53:43;22.37;;;16.30;;
23702;SDS011;12030;50.376;8.762;2024-03-22T07:56:08;19.07;;;16.10;;
23702;SDS011;12030;50.376;8.762;2024-03-22T07:58:34;19.47;;;15.93;;
23702;SDS011;12030;50.376;8.762;2024-03-22T08:00:59;21.20;;;16.60;;
23702;SDS011;12030;50.376;8.762;2024-03-22T08:03:25;20.10;;;15.63;;
23702;SDS011;12030;50.376;8.762;2024-03-22T08:05:50;19.27;;;15.83;;
23702;SDS011;12030;50.376;8.762;2024-03-22T08:08:16;22.40;;;15.80;;
23702;SDS011;12030;50.376;8.762;2024-03-22T08:10:42;19.43;;;15.83;;
23702;SDS011;12030;50.376;8.762;2024-03-22T08:13:08;20.57;;;15.63;;
23702;SDS011;12030;50.376;8.762;2024-03-22T08:15:33;20.33;;;14.97;;
23702;SDS011;12030;50.376;8.762;2024-03-22T08:18:00;22.03;;;16.20;;
23702;SDS011;12030;50.376;8.762;2024-03-22T08:20:26;20.80;;;15.80;;
23702;SDS011;12030;50.376;8.762;2024-03-22T08:22:51;21.77;;;16.30;;
23702;SDS011;12030;50.376;8.762;2024-03-22T08:25:17;20.83;;;15.73;;
23702;SDS011;12030;50.376;8.762;2024-03-22T08:27:44;22.17;;;16.17;;
23702;SDS011;12030;50.376;8.762;2024-03-22T08:30:11;22.13;;;16.90;;
23702;SDS011;12030;50.376;8.762;2024-03-22T08:32:37;13.83;;;11.33;;
23702;SDS011;12030;50.376;8.762;2024-03-22T08:35:02;18.23;;;14.00;;
23702;SDS011;12030;50.376;8.762;2024-03-22T08:37:29;18.80;;;13.83;;
23702;SDS011;12030;50.376;8.762;2024-03-22T08:39:55;19.60;;;13.67;;
23702;SDS011;12030;50.376;8.762;2024-03-22T08:42:20;17.43;;;13.90;;
23702;SDS011;12030;50.376;8.762;2024-03-22T08:44:46;18.43;;;14.27;;
23702;SDS011;12030;50.376;8.762;2024-03-22T08:47:11;16.90;;;12.30;;
23702;SDS011;12030;50.376;8.762;2024-03-22T08:49:37;16.10;;;13.07;;
23702;SDS011;12030;50.376;8.762;2024-03-22T08:52:02;18.10;;;13.13;;
23702;SDS011;12030;50.376;8.762;2024-03-22T08:54:28;17.53;;;12.80;;
23702;SDS011;12030;50.376;8.762;2024-03-22T08:56:53;15.57;;;12.07;;
23702;SDS011;12030;50.376;8.762;2024-03-22T08:59:19;15.07;;;11.50;;
23702;SDS011;12030;50.376;8.762;2024-03-22T09:01:44;16.70;;;12.20;;
23702;SDS011;12030;50.376;8.762;2024-03-22T09:04:10;15.30;;;10.67;;
23702;SDS011;12030;50.376;8.762;2024-03-22T09:06:35;13.93;;;10.87;;
23702;SDS011;12030;50.376;8.762;2024-03-22T09:09:01;14.77;;;12.10;;
23702;SDS011;12030;50.376;8.762;2024-03-22T09:11:28;15.53;;;11.67;;
23702;SDS011;12030;50.376;8.762;2024-03-22T09:13:54;15.67;;;12.03;;
23702;SDS011;12030;50.376;8.762;2024-03-22T09:16:20;14.27;;;11.00;;
23702;SDS011;12030;50.376;8.762;2024-03-22T09:18:45;14.97;;;10.47;;
23702;SDS011;12030;50.376;8.762;2024-03-22T09:21:11;14.17;;;10.47;;
23702;SDS011;12030;50.376;8.762;2024-03-22T09:23:36;15.73;;;11.13;;
23702;SDS011;12030;50.376;8.762;2024-03-22T09:26:02;14.57;;;10.93;;
23702;SDS011;12030;50.376;8.762;2024-03-22T09:28:28;15.30;;;10.53;;
23702;SDS011;12030;50.376;8.762;2024-03-22T09:30:53;13.73;;;11.00;;
23702;SDS011;12030;50.376;8.762;2024-03-22T09:33:19;14.10;;;10.10;;
23702;SDS011;12030;50.376;8.762;2024-03-22T09:35:44;14.47;;;10.23;;
23702;SDS011;12030;50.376;8.762;2024-03-22T09:38:10;15.43;;;10.40;;
23702;SDS011;12030;50.376;8.762;2024-03-22T09:40:38;14.80;;;9.53;;
23702;SDS011;12030;50.376;8.762;2024-03-22T09:43:04;15.03;;;10.03;;
23702;SDS011;12030;50.376;8.762;2024-03-22T09:45:31;13.43;;;9.50;;
23702;SDS011;12030;50.376;8.762;2024-03-22T09:47:57;13.67;;;9.90;;
23702;SDS011;12030;50.376;8.762;2024-03-22T09:50:23;11.40;;;9.17;;
23702;SDS011;12030;50.376;8.762;2024-03-22T09:52:50;13.83;;;9.97;;
23702;SDS011;12030;50.376;8.762;2024-03-22T09:55:19;15.00;;;9.00;;
23702;SDS011;12030;50.376;8.762;2024-03-22T09:57:48;12.17;;;8.53;;
23702;SDS011;12030;50.376;8.762;2024-03-22T10:00:15;11.43;;;8.57;;
23702;SDS011;12030;50.376;8.762;2024-03-22T10:02:43;11.30;;;7.90;;
23702;SDS011;12030;50.376;8.762;2024-03-22T10:05:11;13.50;;;8.30;;
23702;SDS011;12030;50.376;8.762;2024-03-22T10:07:36;10.63;;;7.67;;
23702;SDS011;12030;50.376;8.762;2024-03-22T10:10:02;9.93;;;7.80;;
23702;SDS011;12030;50.376;8.762;2024-03-22T10:12:28;9.90;;;7.53;;
23702;SDS011;12030;50.376;8.762;2024-03-22T10:14:54;10.07;;;7.10;;
23702;SDS011;12030;50.376;8.762;2024-03-22T10:17:20;11.50;;;7.53;;
23702;SDS011;12030;50.376;8.762;2024-03-22T10:19:45;9.43;;;7.40;;
23702;SDS011;12030;50.376;8.762;2024-03-22T10:22:15;9.03;;;6.80;;
23702;SDS011;12030;50.376;8.762;2024-03-22T10:24:44;9.73;;;7.00;;
23702;SDS011;12030;50.376;8.762;2024-03-22T10:27:09;8.23;;;6.37;;
23702;SDS011;12030;50.376;8.762;2024-03-22T10:29:35;13.80;;;7.57;;
23702;SDS011;12030;50.376;8.762;2024-03-22T10:32:01;8.93;;;7.30;;
23702;SDS011;12030;50.376;8.762;2024-03-22T10:34:27;8.00;;;6.50;;
23702;SDS011;12030;50.376;8.762;2024-03-22T10:36:55;10.53;;;6.63;;
23702;SDS011;12030;50.376;8.762;2024-03-22T10:39:21;8.17;;;6.77;;
23702;SDS011;12030;50.376;8.762;2024-03-22T10:41:48;8.87;;;6.70;;
23702;SDS011;12030;50.376;8.762;2024-03-22T10:44:14;7.57;;;6.50;;
23702;SDS011;12030;50.376;8.762;2024-03-22T10:46:44;11.10;;;7.33;;
23702;SDS011;12030;50.376;8.762;2024-03-22T10:49:20;9.63;;;6.90;;
23702;SDS011;12030;50.376;8.762;2024-03-22T10:51:48;12.07;;;7.13;;
23702;SDS011;12030;50.376;8.762;2024-03-22T10:54:18;12.20;;;7.30;;
23702;SDS011;12030;50.376;8.762;2024-03-22T10:56:50;7.97;;;6.27;;
23702;SDS011;12030;50.376;8.762;2024-03-22T10:59:20;8.30;;;6.07;;
23702;SDS011;12030;50.376;8.762;2024-03-22T11:01:49;8.50;;;6.53;;
23702;SDS011;12030;50.376;8.762;2024-03-22T11:04:15;9.70;;;6.70;;
23702;SDS011;12030;50.376;8.762;2024-03-22T11:06:49;9.67;;;6.40;;
23702;SDS011;12030;50.376;8.762;2024-03-22T11:09:20;9.57;;;6.67;;
23702;SDS011;12030;50.376;8.762;2024-03-22T11:11:46;9.30;;;6.07;;
23702;SDS011;12030;50.376;8.762;2024-03-22T11:14:12;8.40;;;5.73;;
23702;SDS011;12030;50.376;8.762;2024-03-22T11:16:38;9.37;;;6.83;;
23702;SDS011;12030;50.376;8.762;2024-03-22T11:19:04;8.67;;;6.13;;
23702;SDS011;12030;50.376;8.762;2024-03-22T11:21:32;9.40;;;6.97;;
23702;SDS011;12030;50.376;8.762;2024-03-22T11:24:00;9.23;;;6.57;;
23702;SDS011;12030;50.376;8.762;2024-03-22T11:26:26;7.80;;;6.30;;
23702;SDS011;12030;50.376;8.762;2024-03-22T11:28:51;6.67;;;5.80;;
23702;SDS011;12030;50.376;8.762;2024-03-22T11:31:17;8.40;;;6.50;;
23702;SDS011;12030;50.376;8.762;2024-03-22T11:33:44;8.67;;;6.03;;
23702;SDS011;12030;50.376;8.762;2024-03-22T11:36:11;8.73;;;6.83;;
23702;SDS011;12030;50.376;8.762;2024-03-22T11:38:36;6.93;;;6.10;;
23702;SDS011;12030;50.376;8.762;2024-03-22T11:41:02;8.73;;;6.30;;
23702;SDS011;12030;50.376;8.762;2024-03-22T11:43:28;9.07;;;6.73;;
23702;SDS011;12030;50.376;8.762;2024-03-22T11:45:55;8.40;;;6.67;;
23702;SDS011;12030;50.376;8.762;2024-03-22T11:48:21;9.33;;;6.90;;
23702;SDS011;12030;50.376;8.762;2024-03-22T11:50:47;7.67;;;6.30;;
23702;SDS011;12030;50.376;8.762;2024-03-22T11:53:13;8.23;;;6.43;;
23702;SDS011;12030;50.376;8.762;2024-03-22T11:55:41;9.37;;;6.73;;
23702;SDS011;12030;50.376;8.762;2024-03-22T11:58:08;10.77;;;6.23;;
23702;SDS011;12030;50.376;8.762;2024-03-22T12:00:37;9.53;;;7.17;;
23702;SDS011;12030;50.376;8.762;2024-03-22T12:03:06;10.20;;;6.50;;
23702;SDS011;12030;50.376;8.762;2024-03-22T12:05:32;9.23;;;7.13;;
23702;SDS011;12030;50.376;8.762;2024-03-22T12:07:58;7.20;;;6.40;;
23702;SDS011;12030;50.376;8.762;2024-03-22T12:10:23;9.20;;;6.60;;
23702;SDS011;12030;50.376;8.762;2024-03-22T12:12:49;8.83;;;6.50;;
23702;SDS011;12030;50.376;8.762;2024-03-22T12:15:14;8.97;;;6.03;;
23702;SDS011;12030;50.376;8.762;2024-03-22T12:17:40;9.87;;;6.83;;
23702;SDS011;12030;50.376;8.762;2024-03-22T12:20:08;8.23;;;6.20;;
23702;SDS011;12030;50.376;8.762;2024-03-22T12:22:34;8.67;;;6.83;;
23702;SDS011;12030;50.376;8.762;2024-03-22T12:25:00;10.67;;;6.37;;
23702;SDS011;12030;50.376;8.762;2024-03-22T12:27:26;6.90;;;6.10;;
23702;SDS011;12030;50.376;8.762;2024-03-22T12:29:51;8.40;;;6.53;;
23702;SDS011;12030;50.376;8.762;2024-03-22T12:32:17;9.77;;;6.70;;
23702;SDS011;12030;50.376;8.762;2024-03-22T12:34:42;11.27;;;6.73;;
23702;SDS011;12030;50.376;8.762;2024-03-22T12:37:08;9.97;;;6.90;;
23702;SDS011;12030;50.376;8.762;2024-03-22T12:39:34;8.53;;;6.63;;
23702;SDS011;12030;50.376;8.762;2024-03-22T12:42:00;9.07;;;6.77;;
23702;SDS011;12030;50.376;8.762;2024-03-22T12:44:26;10.23;;;6.37;;
23702;SDS011;12030;50.376;8.762;2024-03-22T12:46:51;9.10;;;6.63;;
23702;SDS011;12030;50.376;8.762;2024-03-22T12:49:19;8.87;;;6.40;;
23702;SDS011;12030;50.376;8.762;2024-03-22T12:51:44;9.70;;;6.73;;
23702;SDS011;12030;50.376;8.762;2024-03-22T12:54:10;10.03;;;7.33;;
23702;SDS011;12030;50.376;8.762;2024-03-22T12:56:37;8.03;;;6.80;;
23702;SDS011;12030;50.376;8.762;2024-03-22T12:59:04;10.27;;;6.53;;
23702;SDS011;12030;50.376;8.762;2024-03-22T13:01:29;9.00;;;6.47;;
23702;SDS011;12030;50.376;8.762;2024-03-22T13:03:55;7.80;;;6.87;;
23702;SDS011;12030;50.376;8.762;2024-03-22T13:06:21;7.07;;;6.17;;
23702;SDS011;12030;50.376;8.762;2024-03-22T13:08:47;8.80;;;6.50;;
23702;SDS011;12030;50.376;8.762;2024-03-22T13:11:12;11.03;;;7.00;;
23702;SDS011;12030;50.376;8.762;2024-03-22T13:13:39;7.57;;;6.10;;
23702;SDS011;12030;50.376;8.762;2024-03-22T13:16:04;9.53;;;6.60;;
23702;SDS011;12030;50.376;8.762;2024-03-22T13:18:31;8.93;;;6.63;;
23702;SDS011;12030;50.376;8.762;2024-03-22T13:20:57;8.57;;;6.77;;
23702;SDS011;12030;50.376;8.762;2024-03-22T13:23:23;7.97;;;6.70;;
23702;SDS011;12030;50.376;8.762;2024-03-22T13:25:48;7.57;;;5.93;;
23702;SDS011;12030;50.376;8.762;2024-03-22T13:28:15;8.43;;;6.33;;
23702;SDS011;12030;50.376;8.762;2024-03-22T13:30:45;9.03;;;6.07;;
23702;SDS011;12030;50.376;8.762;2024-03-22T13:33:10;11.70;;;6.73;;
23702;SDS011;12030;50.376;8.762;2024-03-22T13:35:36;7.27;;;5.97;;
23702;SDS011;12030;50.376;8.762;2024-03-22T13:38:01;7.33;;;6.03;;
23702;SDS011;12030;50.376;8.762;2024-03-22T13:40:27;6.93;;;5.73;;
23702;SDS011;12030;50.376;8.762;2024-03-22T13:42:53;9.37;;;6.10;;
23702;SDS011;12030;50.376;8.762;2024-03-22T13:45:19;6.73;;;5.47;;
23702;SDS011;12030;50.376;8.762;2024-03-22T13:47:45;7.63;;;4.50;;
23702;SDS011;12030;50.376;8.762;2024-03-22T13:50:11;7.37;;;5.07;;
23702;SDS011;12030;50.376;8.762;2024-03-22T13:52:37;6.23;;;3.83;;
23702;SDS011;12030;50.376;8.762;2024-03-22T13:55:02;4.20;;;2.97;;
23702;SDS011;12030;50.376;8.762;2024-03-22T13:57:29;2.97;;;2.50;;
23702;SDS011;12030;50.376;8.762;2024-03-22T13:59:55;4.60;;;2.90;;
23702;SDS011;12030;50.376;8.762;2024-03-22T14:02:21;3.80;;;2.60;;
23702;SDS011;12030;50.376;8.762;2024-03-22T14:04:46;2.90;;;2.60;;
23702;SDS011;12030;50.376;8.762;2024-03-22T14:07:12;3.03;;;2.43;;
23702;SDS011;12030;50.376;8.762;2024-03-22T14:09:37;6.17;;;2.90;;
23702;SDS011;12030;50.376;8.762;2024-03-22T14:12:05;4.80;;;2.83;;
23702;SDS011;12030;50.376;8.762;2024-03-22T14:14:31;4.40;;;2.80;;
23702;SDS011;12030;50.376;8.762;2024-03-22T14:16:57;5.43;;;3.43;;
23702;SDS011;12030;50.376;8.762;2024-03-22T14:19:22;4.93;;;3.20;;
23702;SDS011;12030;50.376;8.762;2024-03-22T14:21:48;4.17;;;2.63;;
23702;SDS011;12030;50.376;8.762;2024-03-22T14:24:14;5.33;;;3.13;;